Погода Черкесскийна неделю

Ростовская область, Россия

21 - 27 мая
  • 21мая
    Сегодня
    +10°
    +27°
    Ясно и безоблачно
    ВремяПогодаТемператураВлажностьДавлениеВетер, м/сВероятность осадков
    00:00Ясно и безоблачно+15°C53 %759 мм0.6 м/с2 %
    03:00Ясно и безоблачно+11°C73 %759 мм0.7 м/с2 %
    06:00Ясно и безоблачно+12°C63 %760 мм0.2 м/с2 %
    09:00Ясно и безоблачно+22°C37 %761 мм1.2 м/с2 %
    12:00Ясно и безоблачно+25°C26 %761 мм1.6 м/с2 %
    15:00Ясно и безоблачно+26°C23 %760 мм1.7 м/с2 %
    18:00Ясно и безоблачно+25°C26 %759 мм1.4 м/с2 %
    21:00Ясно и безоблачно+18°C39 %760 мм0.8 м/с2 %
  • 22мая
    Среда
    +11°
    +28°
    Ясно и безоблачно
    ВремяПогодаТемператураВлажностьДавлениеВетер, м/сВероятность осадков
    00:00Ясно и безоблачно+15°C40 %759 мм1.3 м/с2 %
    03:00Ясно и безоблачно+12°C47 %759 мм1.0 м/с2 %
    06:00Ясно и безоблачно+13°C49 %759 мм1.0 м/с2 %
    09:00Ясно и безоблачно+23°C32 %760 мм1.6 м/с2 %
    12:00Ясно и безоблачно+26°C22 %759 мм3.0 м/с2 %
    15:00Ясно и безоблачно+27°C21 %758 мм2.9 м/с2 %
    18:00Ясно и безоблачно+26°C24 %757 мм2.0 м/с2 %
    21:00Ясно и безоблачно+18°C34 %758 мм1.4 м/с2 %
  • 23мая
    Четверг
    +13°
    +28°
    Ясно и безоблачно
    ВремяПогодаТемператураВлажностьДавлениеВетер, м/сВероятность осадков
    00:00Ясно и безоблачно+16°C40 %757 мм1.8 м/с2 %
    03:00Ясно и безоблачно+12°C50 %757 мм1.1 м/с2 %
    06:00Ясно и безоблачно+13°C56 %758 мм1.1 м/с2 %
    09:00Ясно и безоблачно+22°C35 %758 мм2.3 м/с2 %
    12:00Ясно и безоблачно+26°C23 %758 мм3.4 м/с2 %
    15:00Ясно и безоблачно+27°C21 %757 мм3.4 м/с2 %
    18:00Ясно и безоблачно+26°C27 %757 мм2.4 м/с2 %
    21:00Ясно и безоблачно+19°C45 %758 мм3.1 м/с2 %
  • 24мая
    Пятница
    +9°
    +24°
    Ясно и безоблачно
    ВремяПогодаТемператураВлажностьДавлениеВетер, м/сВероятность осадков
    00:00Ясно и безоблачно+17°C62 %758 мм2.5 м/с2 %
    03:00Ясно и безоблачно+14°C67 %759 мм3.0 м/с2 %
    06:00Ясно и безоблачно+14°C50 %761 мм3.6 м/с2 %
    09:00Ясно и безоблачно+19°C37 %762 мм4.8 м/с2 %
    12:00Ясно и безоблачно+22°C29 %762 мм5.5 м/с2 %
    15:00Ясно и безоблачно+23°C22 %762 мм5.2 м/с2 %
    18:00Ясно и безоблачно+22°C20 %762 мм4.4 м/с2 %
    21:00Ясно и безоблачно+18°C23 %764 мм4.1 м/с2 %
  • 25мая
    Суббота
    +14°
    +23°
    Облачно с прояснениями
    ВремяПогодаТемператураВлажностьДавлениеВетер, м/сВероятность осадков
    00:00Ясно и безоблачно+14°C26 %764 мм3.8 м/с2 %
    03:00Ясно и безоблачно+11°C31 %764 мм4.0 м/с2 %
    06:00Ясно и безоблачно+11°C37 %765 мм3.8 м/с2 %
    09:00Ясно и безоблачно+17°C29 %765 мм5.1 м/с2 %
    12:00Облачно с прояснениями+21°C19 %765 мм6.3 м/с2 %
    15:00Облачно с прояснениями+23°C17 %763 мм5.1 м/с2 %
    18:00Пасмурно, сплошная облачность+22°C17 %762 мм4.5 м/с2 %
    21:00Облачно с прояснениями+20°C20 %762 мм4.6 м/с5 %
Мы используем cookies
Соглашаюсь